Time;durP1;ratioP1;P1;durP2;ratioP2;P2;SDS_P1;SDS_P2;PMS_P1;PMS_P2;Temp;Humidity;BMP_temperature;BMP_pressure;BME280_temperature;BME280_humidity;BME280_pressure;Samples;Min_cycle;Max_cycle;Signal;HPM_P1;HPM_P2
2022/04/03 00:00:10;;;;;;;3.03;2.70;;;;;;;1.10;55.93;101116.16;5093038;28;21242;-23
2022/04/03 00:02:36;;;;;;;3.28;2.70;;;;;;;1.10;55.58;101118.75;5087958;28;20015;-22
2022/04/03 00:05:01;;;;;;;2.63;2.30;;;;;;;1.07;55.43;101118.63;5086603;28;20473;-23
2022/04/03 00:07:26;;;;;;;3.90;2.83;;;;;;;1.05;55.71;101115.97;5069634;28;20028;-22
2022/04/03 00:09:52;;;;;;;4.53;2.78;;;;;;;1.01;55.63;101120.16;5085382;28;20051;-22
2022/04/03 00:12:17;;;;;;;3.05;2.80;;;;;;;1.02;55.71;101121.97;5084355;28;20572;-22
2022/04/03 00:14:43;;;;;;;3.08;2.72;;;;;;;0.97;55.58;101128.66;5070814;28;20020;-23
2022/04/03 00:17:08;;;;;;;3.70;2.78;;;;;;;0.96;55.99;101120.81;5086099;28;20043;-22
2022/04/03 00:19:34;;;;;;;4.47;2.90;;;;;;;0.93;55.49;101131.13;5090450;28;20028;-23
2022/04/03 00:22:03;;;;;;;4.85;2.92;;;;;;;0.92;55.52;101126.72;5087460;28;20027;-23
2022/04/03 00:24:29;;;;;;;3.08;2.78;;;;;;;0.87;56.03;101127.44;5088488;28;20024;-22
2022/04/03 00:26:54;;;;;;;2.80;2.40;;;;;;;0.85;55.65;101126.50;5090159;28;20039;-23
2022/04/03 00:29:20;;;;;;;4.25;2.42;;;;;;;0.82;56.05;101134.19;5092440;28;20028;-23
2022/04/03 00:31:45;;;;;;;4.85;3.63;;;;;;;0.79;55.85;101128.88;5069443;28;20470;-23
2022/04/03 00:34:11;;;;;;;3.47;2.60;;;;;;;0.76;55.95;101128.75;5090862;28;20024;-23
2022/04/03 00:36:36;;;;;;;4.10;2.90;;;;;;;0.73;55.76;101123.47;5088465;28;20402;-23
2022/04/03 00:39:02;;;;;;;2.63;2.42;;;;;;;0.70;55.91;101128.53;5072699;28;20035;-23
2022/04/03 00:41:28;;;;;;;2.95;2.67;;;;;;;0.69;55.84;101118.94;5088195;28;20220;-23
2022/04/03 00:43:53;;;;;;;4.35;2.72;;;;;;;0.64;56.26;101123.97;5088404;28;20028;-22
2022/04/03 00:46:21;;;;;;;3.28;2.92;;;;;;;0.62;55.99;101129.09;5088836;28;20026;-23
2022/04/03 00:48:48;;;;;;;4.18;2.60;;;;;;;0.60;55.88;101125.56;5085637;28;20032;-22
2022/04/03 00:51:13;;;;;;;5.00;2.80;;;;;;;0.57;56.39;101128.03;5087525;28;20020;-23
2022/04/03 00:53:39;;;;;;;3.22;2.78;;;;;;;0.54;55.79;101127.94;5087118;28;20023;-22
2022/04/03 00:56:05;;;;;;;4.13;2.65;;;;;;;0.51;56.25;101128.66;5087801;28;20470;-22
2022/04/03 00:58:31;;;;;;;3.40;3.10;;;;;;;0.49;56.26;101129.44;5087756;28;20024;-23
2022/04/03 01:00:57;;;;;;;3.72;2.85;;;;;;;0.44;55.95;101128.38;5071997;28;20073;-23
2022/04/03 01:03:23;;;;;;;5.93;2.88;;;;;;;0.44;56.20;101130.97;5088828;28;20405;-23
2022/04/03 01:05:48;;;;;;;3.67;3.05;;;;;;;0.39;55.72;101125.59;5087042;28;20044;-23
2022/04/03 01:08:14;;;;;;;4.65;3.03;;;;;;;0.37;55.86;101125.53;5083492;28;20031;-23
2022/04/03 01:10:40;;;;;;;3.03;2.72;;;;;;;0.34;55.68;101129.72;5082337;28;20027;-23
2022/04/03 01:13:06;;;;;;;5.03;3.28;;;;;;;0.28;56.18;101130.34;5088443;28;20024;-23
2022/04/03 01:15:33;;;;;;;3.50;2.95;;;;;;;0.24;56.57;101128.47;5068924;28;20649;-23
2022/04/03 01:17:58;;;;;;;5.25;3.67;;;;;;;0.22;56.16;101128.41;5089332;28;20036;-22
2022/04/03 01:20:24;;;;;;;4.65;3.30;;;;;;;0.18;56.36;101123.91;5090199;28;20028;-22
2022/04/03 01:22:49;;;;;;;4.05;3.20;;;;;;;0.15;56.57;101128.97;5092662;28;20024;-23
2022/04/03 01:25:15;;;;;;;3.10;2.72;;;;;;;0.14;56.24;101127.22;5092466;28;20536;-23
2022/04/03 01:27:40;;;;;;;3.33;3.03;;;;;;;0.10;56.21;101133.97;5077271;28;20020;-23
2022/04/03 01:30:07;;;;;;;6.18;3.35;;;;;;;0.08;55.81;101139.91;5091840;28;20035;-24
2022/04/03 01:32:33;;;;;;;3.85;2.75;;;;;;;0.02;56.01;101132.75;5089297;28;20122;-23
2022/04/03 01:34:58;;;;;;;4.45;3.20;;;;;;;-0.03;56.32;101136.88;5076718;28;20181;-24
2022/04/03 01:37:24;;;;;;;6.40;3.35;;;;;;;-0.07;55.76;101135.84;5076666;28;20531;-24
2022/04/03 01:39:49;;;;;;;3.67;3.38;;;;;;;-0.11;56.49;101135.69;5091742;28;20020;-25
2022/04/03 01:42:15;;;;;;;4.15;2.88;;;;;;;-0.17;56.00;101131.97;5090489;28;20024;-25
2022/04/03 01:44:40;;;;;;;5.75;3.28;;;;;;;-0.21;56.29;101139.56;5073701;28;20027;-24
2022/04/03 01:47:06;;;;;;;3.72;3.42;;;;;;;-0.25;56.25;101135.97;5088638;28;20028;-24
2022/04/03 01:49:31;;;;;;;3.30;2.92;;;;;;;-0.29;56.37;101136.66;5072510;28;20382;-25
2022/04/03 01:51:57;;;;;;;3.45;3.15;;;;;;;-0.33;56.42;101145.13;5091238;28;20061;-23
2022/04/03 01:54:22;;;;;;;4.05;3.15;;;;;;;-0.39;56.19;101144.03;5092702;28;20035;-24
2022/04/03 01:56:48;;;;;;;5.60;3.53;;;;;;;-0.43;56.47;101146.44;5056602;28;20020;-25
2022/04/03 01:59:13;;;;;;;5.55;3.28;;;;;;;-0.47;56.41;101147.13;5092048;28;20113;-24
2022/04/03 02:01:39;;;;;;;4.70;3.20;;;;;;;-0.51;56.13;101138.31;5091014;28;20027;-24
2022/04/03 02:04:04;;;;;;;4.25;3.28;;;;;;;-0.55;56.10;101139.00;5090246;28;20107;-25
2022/04/03 02:06:31;;;;;;;4.97;3.15;;;;;;;-0.59;56.17;101138.00;5086075;28;20466;-25
2022/04/03 02:08:56;;;;;;;3.60;3.30;;;;;;;-0.63;56.69;101143.84;5091776;28;20054;-25
2022/04/03 02:11:22;;;;;;;4.97;3.85;;;;;;;-0.66;56.83;101141.13;5090987;28;20470;-24
2022/04/03 02:13:47;;;;;;;3.80;3.42;;;;;;;-0.71;56.63;101140.00;5073236;28;20040;-25
2022/04/03 02:16:14;;;;;;;4.45;2.92;;;;;;;-0.75;56.17;101144.19;5089502;28;20028;-21
2022/04/03 02:18:39;;;;;;;4.20;3.05;;;;;;;-0.78;57.00;101146.63;5086187;28;20700;-23
2022/04/03 02:21:05;;;;;;;4.05;2.97;;;;;;;-0.82;56.93;101143.03;5092985;28;21116;-26
2022/04/03 02:23:30;;;;;;;6.40;3.70;;;;;;;-0.84;56.86;101148.97;5093147;28;20466;-25
2022/04/03 02:25:56;;;;;;;3.85;3.40;;;;;;;-0.89;57.00;101147.84;5090290;28;20028;-24
2022/04/03 02:28:22;;;;;;;4.00;3.15;;;;;;;-0.94;56.85;101145.94;5088777;28;20109;-25
2022/04/03 02:30:48;;;;;;;4.72;3.95;;;;;;;-0.96;56.47;101147.59;5090684;28;20230;-25
2022/04/03 02:33:13;;;;;;;4.60;3.40;;;;;;;-1.01;56.84;101149.06;5087528;28;20069;-25
2022/04/03 02:35:39;;;;;;;5.35;4.15;;;;;;;-1.04;56.68;101154.09;5089806;28;20028;-25
2022/04/03 02:38:04;;;;;;;6.00;3.75;;;;;;;-1.07;56.65;101151.38;5091039;28;20029;-23
2022/04/03 02:40:30;;;;;;;4.85;3.08;;;;;;;-1.10;56.39;101148.66;5092307;28;20024;-25
2022/04/03 02:42:55;;;;;;;5.95;3.92;;;;;;;-1.14;57.09;101151.91;5092014;28;20539;-26
2022/04/03 02:45:21;;;;;;;5.22;3.10;;;;;;;-1.17;57.14;101150.03;5071838;28;20008;-24
2022/04/03 02:47:52;;;;;;;4.85;3.75;;;;;;;-1.21;56.43;101142.94;5069439;28;20023;-24
2022/04/03 02:50:20;;;;;;;3.78;3.20;;;;;;;-1.23;56.66;101144.59;5072847;28;20031;-25
2022/04/03 02:52:46;;;;;;;6.40;3.55;;;;;;;-1.26;56.83;101150.53;5090051;28;20486;-24
2022/04/03 02:55:12;;;;;;;4.10;3.50;;;;;;;-1.32;56.86;101156.28;5090638;28;20038;-20
2022/04/03 02:57:37;;;;;;;5.47;3.30;;;;;;;-1.33;56.59;101151.03;5089870;28;20102;-23
2022/04/03 03:00:04;;;;;;;6.47;3.40;;;;;;;-1.36;57.14;101156.97;5091160;28;20039;-25
2022/04/03 03:02:30;;;;;;;4.25;3.22;;;;;;;-1.43;57.02;101152.31;5074122;28;20027;-25
2022/04/03 03:04:55;;;;;;;4.55;3.50;;;;;;;-1.45;56.63;101152.22;5072177;28;20023;-25
2022/04/03 03:07:21;;;;;;;4.68;3.10;;;;;;;-1.49;57.35;101164.94;5093467;28;20279;-25
2022/04/03 03:09:48;;;;;;;5.68;3.67;;;;;;;-1.53;57.18;101158.75;5088219;28;20050;-25
2022/04/03 03:12:14;;;;;;;4.00;3.28;;;;;;;-1.53;57.04;101158.75;5071598;28;20020;-24
2022/04/03 03:14:39;;;;;;;4.80;3.70;;;;;;;-1.59;57.24;101153.25;5085259;28;20027;-25
2022/04/03 03:17:05;;;;;;;4.93;3.45;;;;;;;-1.60;57.07;101161.84;5091544;28;20463;-24
2022/04/03 03:19:30;;;;;;;4.80;3.47;;;;;;;-1.64;57.27;101165.09;5092379;28;20477;-25
2022/04/03 03:21:55;;;;;;;4.38;3.53;;;;;;;-1.67;57.30;101155.47;5089545;28;20032;-25
2022/04/03 03:24:21;;;;;;;4.20;3.78;;;;;;;-1.70;57.36;101158.78;5090087;28;20024;-25
2022/04/03 03:26:46;;;;;;;3.70;3.30;;;;;;;-1.70;57.44;101161.38;5090067;28;20485;-24
2022/04/03 03:29:12;;;;;;;4.00;3.33;;;;;;;-1.72;57.17;101160.44;5089486;28;20052;-24
2022/04/03 03:31:37;;;;;;;4.88;3.40;;;;;;;-1.77;57.15;101159.31;5066365;28;20113;-25
2022/04/03 03:34:03;;;;;;;5.72;3.83;;;;;;;-1.81;57.53;101158.28;5085547;28;20522;-23
2022/04/03 03:36:28;;;;;;;5.22;3.72;;;;;;;-1.82;57.52;101164.28;5086131;28;20028;-25
2022/04/03 03:38:54;;;;;;;5.65;3.55;;;;;;;-1.85;57.29;101161.53;5084455;28;20171;-24
2022/04/03 03:41:19;;;;;;;5.25;3.72;;;;;;;-1.86;57.66;101164.03;5087932;28;20446;-25
2022/04/03 03:43:45;;;;;;;6.05;3.40;;;;;;;-1.89;57.08;101162.19;5085734;28;20031;-22
2022/04/03 03:46:10;;;;;;;4.28;3.58;;;;;;;-1.91;56.99;101161.22;5082064;28;20031;-25
2022/04/03 03:48:36;;;;;;;5.00;3.88;;;;;;;-1.94;57.24;101156.78;5083095;28;20019;-23
2022/04/03 03:51:02;;;;;;;4.88;3.80;;;;;;;-1.96;57.36;101171.31;5066645;28;20056;-24
2022/04/03 03:53:28;;;;;;;4.63;3.50;;;;;;;-1.99;56.95;101166.00;5092504;28;20034;-22
2022/04/03 03:55:54;;;;;;;4.50;3.28;;;;;;;-2.01;57.19;101175.38;5084506;28;20023;-25
2022/04/03 03:58:20;;;;;;;3.75;3.20;;;;;;;-2.03;57.73;101173.53;5089350;28;20032;-24
2022/04/03 04:00:45;;;;;;;4.22;3.80;;;;;;;-2.05;57.24;101181.19;5084009;28;20099;-22
2022/04/03 04:03:11;;;;;;;5.30;3.42;;;;;;;-2.07;57.13;101185.41;5086329;28;20476;-25
2022/04/03 04:05:36;;;;;;;5.70;3.67;;;;;;;-2.08;57.18;101188.78;5081016;28;20019;-24
2022/04/03 04:08:02;;;;;;;3.42;3.00;;;;;;;-2.13;57.32;101188.56;5088054;28;20028;-25
2022/04/03 04:10:28;;;;;;;3.85;3.20;;;;;;;-2.14;57.64;101191.09;5091916;28;20110;-25
2022/04/03 04:12:53;;;;;;;3.67;3.30;;;;;;;-2.16;57.36;101191.00;5087222;28;20482;-25
2022/04/03 04:15:19;;;;;;;3.47;3.00;;;;;;;-2.21;57.41;101187.28;5088901;28;20016;-24
2022/04/03 04:17:46;;;;;;;4.07;3.65;;;;;;;-2.25;57.42;101194.00;5086642;28;20409;-23
2022/04/03 04:20:15;;;;;;;6.72;3.75;;;;;;;-2.28;57.62;101193.84;5090055;28;20093;-25
2022/04/03 04:22:42;;;;;;;4.90;3.88;;;;;;;-2.32;57.73;101194.50;5088053;28;20056;-24
2022/04/03 04:25:08;;;;;;;5.70;3.25;;;;;;;-2.34;57.31;101201.25;5052727;28;20051;-25
2022/04/03 04:27:34;;;;;;;7.07;4.20;;;;;;;-2.39;57.65;101198.47;5056303;28;20054;-25
2022/04/03 04:29:59;;;;;;;7.45;3.90;;;;;;;-2.40;57.48;101196.66;5090972;28;20023;-24
2022/04/03 04:32:26;;;;;;;5.38;3.60;;;;;;;-2.40;57.49;101203.53;5085882;28;20028;-24
2022/04/03 04:34:52;;;;;;;6.53;4.10;;;;;;;-2.45;57.45;101211.94;5088028;28;20028;-24
2022/04/03 04:37:18;;;;;;;5.60;4.03;;;;;;;-2.47;57.60;101210.97;5071777;28;20110;-25
2022/04/03 04:39:44;;;;;;;5.68;4.18;;;;;;;-2.50;57.79;101213.38;5070558;28;20476;-25
2022/04/03 04:42:10;;;;;;;6.15;3.92;;;;;;;-2.54;57.70;101202.81;5085652;28;20126;-25
2022/04/03 04:44:36;;;;;;;7.97;4.38;;;;;;;-2.55;57.56;101217.41;5087805;28;20051;-25
2022/04/03 04:47:01;;;;;;;5.32;3.42;;;;;;;-2.58;57.46;101206.91;5088876;28;20023;-24
2022/04/03 04:49:27;;;;;;;6.15;4.15;;;;;;;-2.59;57.94;101212.91;5051824;28;20120;-24
2022/04/03 04:51:53;;;;;;;6.03;4.18;;;;;;;-2.60;57.59;101218.88;5088709;28;20070;-25
2022/04/03 04:54:18;;;;;;;5.80;3.92;;;;;;;-2.63;57.29;101226.47;5092291;28;20534;-25
2022/04/03 04:56:44;;;;;;;5.65;4.43;;;;;;;-2.66;57.55;101224.59;5090525;28;20039;-25
2022/04/03 04:59:10;;;;;;;5.15;3.22;;;;;;;-2.67;57.55;101217.63;5089401;28;20020;-25
2022/04/03 05:01:36;;;;;;;4.28;3.83;;;;;;;-2.69;57.67;101223.53;5089577;28;20035;-23
2022/04/03 05:04:02;;;;;;;3.75;3.22;;;;;;;-2.70;57.59;101233.00;5070100;28;20019;-25
2022/04/03 05:06:27;;;;;;;4.97;3.35;;;;;;;-2.72;57.80;101242.34;5090078;28;20020;-24
2022/04/03 05:08:54;;;;;;;4.60;3.70;;;;;;;-2.75;57.91;101230.16;5051539;28;20148;-25
2022/04/03 05:11:19;;;;;;;6.22;3.75;;;;;;;-2.77;57.64;101234.31;5070366;28;20027;-25
2022/04/03 05:13:46;;;;;;;4.57;3.90;;;;;;;-2.80;57.87;101236.75;5071386;28;20036;-25
2022/04/03 05:16:11;;;;;;;4.18;3.22;;;;;;;-2.81;57.81;101242.72;5084383;28;20024;-25
2022/04/03 05:18:37;;;;;;;4.45;3.08;;;;;;;-2.81;57.96;101240.13;5084452;28;20050;-25
2022/04/03 05:21:04;;;;;;;6.65;4.07;;;;;;;-2.85;58.09;101239.09;5082157;28;20106;-23
2022/04/03 05:23:30;;;;;;;4.93;3.03;;;;;;;-2.87;58.18;101240.69;5085339;28;20023;-23
2022/04/03 05:25:56;;;;;;;4.28;2.92;;;;;;;-2.88;58.09;101238.00;5085557;28;20047;-23
2022/04/03 05:28:21;;;;;;;4.47;2.72;;;;;;;-2.89;57.79;101244.00;5088346;28;20024;-23
2022/04/03 05:30:48;;;;;;;5.05;3.28;;;;;;;-2.88;57.90;101243.19;5091446;28;20492;-22
2022/04/03 05:33:14;;;;;;;4.15;2.50;;;;;;;-2.91;58.06;101237.84;5084170;28;20111;-23
2022/04/03 05:35:40;;;;;;;4.25;3.30;;;;;;;-2.91;58.43;101240.41;5087538;28;20153;-23
2022/04/03 05:38:05;;;;;;;5.82;4.20;;;;;;;-2.92;58.70;101246.41;5086560;28;21294;-22
2022/04/03 05:40:31;;;;;;;4.45;3.53;;;;;;;-2.90;58.43;101250.84;5085178;28;20058;-23
2022/04/03 05:42:58;;;;;;;5.40;3.15;;;;;;;-2.92;58.70;101246.41;5087805;28;20035;-23
2022/04/03 05:45:24;;;;;;;4.57;3.25;;;;;;;-2.90;58.65;101249.97;5084639;28;20016;-23
2022/04/03 05:47:50;;;;;;;3.30;2.97;;;;;;;-2.89;58.73;101257.81;5086122;28;20020;-23
2022/04/03 05:50:15;;;;;;;3.47;2.85;;;;;;;-2.88;58.51;101253.50;5084891;28;20016;-23
2022/04/03 05:52:45;;;;;;;5.85;3.10;;;;;;;-2.86;58.54;101254.50;5090143;28;20040;-23
2022/04/03 05:55:11;;;;;;;5.40;3.42;;;;;;;-2.84;58.79;101258.03;5085578;28;20020;-23
2022/04/03 05:57:37;;;;;;;6.20;3.33;;;;;;;-2.84;58.78;101256.34;5086102;28;20040;-23
2022/04/03 06:00:05;;;;;;;3.72;3.20;;;;;;;-2.82;58.93;101261.59;5087042;28;20080;-23
2022/04/03 06:02:41;;;;;;;3.78;2.90;;;;;;;-2.79;58.68;101254.03;5082274;28;20032;-23
2022/04/03 06:05:06;;;;;;;5.55;3.30;;;;;;;-2.76;59.17;101259.38;5069785;28;20047;-23
2022/04/03 06:07:32;;;;;;;5.13;3.45;;;;;;;-2.73;59.40;101275.00;5089920;28;20111;-23
2022/04/03 06:09:58;;;;;;;4.75;3.13;;;;;;;-2.72;58.84;101263.91;5091969;28;20031;-23
2022/04/03 06:12:23;;;;;;;5.20;2.78;;;;;;;-2.70;58.88;101263.97;5092943;28;20458;-23
2022/04/03 06:14:49;;;;;;;3.13;2.53;;;;;;;-2.65;59.18;101267.69;5089679;28;20024;-23
2022/04/03 06:17:15;;;;;;;6.50;3.67;;;;;;;-2.63;59.04;101267.78;5091111;28;20026;-23
2022/04/03 06:19:40;;;;;;;3.50;3.13;;;;;;;-2.61;59.11;101274.81;5089578;28;20425;-23
2022/04/03 06:22:05;;;;;;;3.50;3.20;;;;;;;-2.58;59.06;101279.25;5091720;28;20393;-23
2022/04/03 06:24:31;;;;;;;7.72;3.60;;;;;;;-2.55;59.79;101273.34;5088830;28;20035;-23
2022/04/03 06:26:57;;;;;;;4.75;3.50;;;;;;;-2.53;59.24;101272.66;5093847;28;20020;-22
2022/04/03 06:29:22;;;;;;;10.63;4.57;;;;;;;-2.51;59.20;101276.19;5089055;28;20035;-23
2022/04/03 06:31:48;;;;;;;4.38;3.70;;;;;;;-2.47;59.59;101272.97;5087048;28;20114;-23
2022/04/03 06:34:13;;;;;;;6.60;4.05;;;;;;;-2.44;59.56;101274.81;5091494;28;20638;-23
2022/04/03 06:36:39;;;;;;;5.03;4.18;;;;;;;-2.39;59.53;101280.25;5092590;28;20024;-23
2022/04/03 06:39:04;;;;;;;5.53;3.92;;;;;;;-2.36;59.41;101283.91;5089404;28;20027;-23
2022/04/03 06:41:30;;;;;;;5.35;3.60;;;;;;;-2.34;59.38;101273.59;5091854;28;20038;-23
2022/04/03 06:43:55;;;;;;;7.13;4.03;;;;;;;-2.30;59.55;101285.91;5088183;28;20077;-23
2022/04/03 06:46:20;;;;;;;6.90;3.83;;;;;;;-2.27;59.47;101286.06;5073394;28;20052;-23
2022/04/03 06:48:46;;;;;;;5.78;3.38;;;;;;;-2.22;59.39;101279.44;5087586;28;20024;-22
2022/04/03 06:51:11;;;;;;;6.72;3.88;;;;;;;-2.16;59.30;101288.31;5073101;28;20453;-23
2022/04/03 06:53:37;;;;;;;8.27;4.60;;;;;;;-2.12;59.31;101288.59;5074163;28;20024;-23
2022/04/03 06:56:03;;;;;;;9.80;5.07;;;;;;;-2.06;59.53;101282.84;5088072;28;20036;-23
2022/04/03 06:58:28;;;;;;;11.13;6.03;;;;;;;-2.00;59.27;101284.88;5088243;28;20055;-23
2022/04/03 07:00:54;;;;;;;8.93;5.47;;;;;;;-1.94;59.43;101283.47;5087242;28;20032;-23
2022/04/03 07:03:19;;;;;;;9.40;4.65;;;;;;;-1.88;59.25;101282.91;5087814;28;20032;-22
2022/04/03 07:05:45;;;;;;;7.22;4.32;;;;;;;-1.83;59.35;101281.44;5085286;28;20032;-23
2022/04/03 07:08:10;;;;;;;6.82;4.80;;;;;;;-1.75;59.37;101281.84;5088009;28;20027;-23
2022/04/03 07:10:35;;;;;;;5.28;4.22;;;;;;;-1.66;59.77;101281.44;5091783;28;20027;-23
2022/04/03 07:13:02;;;;;;;7.47;4.13;;;;;;;-1.60;59.99;101281.72;5089689;28;20070;-23
2022/04/03 07:15:27;;;;;;;7.38;4.75;;;;;;;-1.52;59.72;101284.72;5092045;28;20016;-23
2022/04/03 07:17:53;;;;;;;9.52;4.57;;;;;;;-1.44;59.84;101275.63;5085106;28;20452;-23
2022/04/03 07:20:19;;;;;;;8.50;3.72;;;;;;;-1.39;59.59;101277.53;5091477;28;20020;-22
2022/04/03 07:22:44;;;;;;;5.55;3.75;;;;;;;-1.30;59.63;101280.63;5070861;28;20035;-23
2022/04/03 07:25:13;;;;;;;6.50;4.10;;;;;;;-1.21;59.60;101275.88;5089309;28;20020;-23
2022/04/03 07:27:39;;;;;;;6.03;4.22;;;;;;;-1.15;59.35;101270.09;5088011;28;20027;-22
2022/04/03 07:30:08;;;;;;;7.85;3.55;;;;;;;-1.04;59.98;101276.69;5068996;28;20490;-23
2022/04/03 07:32:36;;;;;;;4.95;3.83;;;;;;;-0.93;59.35;101278.91;5072011;28;20486;-22
2022/04/03 07:35:01;;;;;;;4.93;3.53;;;;;;;-0.83;59.38;101277.66;5083508;28;20036;-22
2022/04/03 07:37:27;;;;;;;3.42;3.10;;;;;;;-0.74;58.95;101279.78;5083332;28;20027;-23
2022/04/03 07:39:52;;;;;;;7.15;3.22;;;;;;;-0.63;59.73;101285.47;5085278;28;20393;-23
2022/04/03 07:42:18;;;;;;;5.18;3.28;;;;;;;-0.54;58.89;101275.50;5094568;28;20056;-22
2022/04/03 07:44:44;;;;;;;4.63;3.28;;;;;;;-0.42;58.55;101285.56;5091871;28;20043;-23
2022/04/03 07:47:11;;;;;;;5.72;3.47;;;;;;;-0.31;58.51;101280.88;5087829;28;20027;-23
2022/04/03 07:49:37;;;;;;;4.28;3.10;;;;;;;-0.21;58.47;101280.47;5085597;28;20069;-22
2022/04/03 07:52:03;;;;;;;3.95;3.25;;;;;;;-0.08;58.12;101281.00;5088542;28;20085;-23
2022/04/03 07:54:29;;;;;;;4.43;3.15;;;;;;;0.03;58.85;101279.78;5088592;28;20023;-22
2022/04/03 07:56:55;;;;;;;3.45;3.15;;;;;;;0.15;58.23;101274.25;5087721;28;20509;-23
2022/04/03 07:59:21;;;;;;;4.90;3.33;;;;;;;0.29;58.55;101280.03;5087740;28;20032;-22
2022/04/03 08:01:47;;;;;;;4.53;3.15;;;;;;;0.42;57.75;101272.75;5073628;28;20093;-22
2022/04/03 08:04:13;;;;;;;3.70;2.92;;;;;;;0.55;58.53;101280.25;5091118;28;20016;-22
2022/04/03 08:06:40;;;;;;;6.43;3.05;;;;;;;0.70;56.96;101276.53;5090228;28;20417;-23
2022/04/03 08:09:07;;;;;;;4.05;3.08;;;;;;;0.80;57.73;101281.25;5086320;28;20032;-23
2022/04/03 08:11:33;;;;;;;3.40;2.80;;;;;;;0.96;58.11;101287.06;5089690;28;20074;-23
2022/04/03 08:13:59;;;;;;;4.97;4.43;;;;;;;1.10;58.69;101280.72;5090252;28;20024;-23
2022/04/03 08:16:25;;;;;;;6.18;3.28;;;;;;;1.26;58.49;101279.63;5086289;28;20032;-23
2022/04/03 08:18:51;;;;;;;4.85;3.70;;;;;;;1.33;56.74;101272.94;5087682;28;20034;-23
2022/04/03 08:21:18;;;;;;;2.70;2.50;;;;;;;1.50;56.64;101281.38;5090886;28;20595;-23
2022/04/03 08:23:44;;;;;;;3.53;3.15;;;;;;;1.66;57.81;101287.16;5086695;28;20016;-22
2022/04/03 08:26:12;;;;;;;5.20;2.70;;;;;;;1.78;57.79;101286.75;5086616;28;20065;-23
2022/04/03 08:28:37;;;;;;;3.03;2.72;;;;;;;1.89;56.03;101293.22;5086885;28;20020;-23
2022/04/03 08:31:03;;;;;;;3.38;2.90;;;;;;;1.98;55.07;101279.66;5085670;28;20536;-23
2022/04/03 08:33:29;;;;;;;3.67;2.60;;;;;;;2.08;54.55;101286.09;5089021;28;20028;-23
2022/04/03 08:35:55;;;;;;;2.50;2.30;;;;;;;2.18;53.77;101277.78;5096982;28;20036;-23
2022/04/03 08:38:21;;;;;;;3.58;2.60;;;;;;;2.29;53.46;101279.84;5088071;28;20023;-23
2022/04/03 08:40:46;;;;;;;4.65;2.65;;;;;;;2.37;53.59;101275.78;5087138;28;20035;-22
2022/04/03 08:43:13;;;;;;;5.55;3.13;;;;;;;2.47;54.54;101276.13;5074174;28;20427;-21
2022/04/03 08:45:39;;;;;;;3.70;2.65;;;;;;;2.61;55.02;101272.28;5066867;28;20387;-22
2022/04/03 08:48:05;;;;;;;2.97;2.78;;;;;;;2.66;52.16;101272.41;5085142;28;20025;-22
2022/04/03 08:50:38;;;;;;;2.88;2.58;;;;;;;2.74;51.24;101272.66;5082210;28;20020;-22
2022/04/03 08:53:06;;;;;;;3.63;2.58;;;;;;;2.83;52.41;101272.97;5083537;28;20528;-21
2022/04/03 08:55:32;;;;;;;3.15;2.85;;;;;;;2.88;51.62;101279.22;5084543;28;20035;-22
2022/04/03 08:57:57;;;;;;;2.97;2.58;;;;;;;2.97;52.33;101270.81;5088216;28;20023;-22
2022/04/03 09:00:24;;;;;;;3.72;2.80;;;;;;;3.05;52.58;101263.22;5086758;28;20143;-22
2022/04/03 09:02:50;;;;;;;3.85;3.00;;;;;;;3.09;51.33;101270.31;5085254;28;20402;-22
2022/04/03 09:05:17;;;;;;;3.30;2.67;;;;;;;3.20;53.67;101263.69;5093056;28;20034;-22
2022/04/03 09:07:43;;;;;;;3.10;2.17;;;;;;;3.35;52.31;101265.03;5088734;28;20518;-23
2022/04/03 09:10:14;;;;;;;3.78;2.50;;;;;;;3.43;51.25;101265.22;5085913;28;20030;-21
2022/04/03 09:12:43;;;;;;;4.00;2.30;;;;;;;3.58;52.63;101262.22;5087400;28;20479;-23
2022/04/03 09:15:14;;;;;;;2.97;2.40;;;;;;;3.71;52.24;101266.06;5088671;28;20055;-22
2022/04/03 09:17:42;;;;;;;2.60;2.40;;;;;;;3.85;54.20;101263.84;5083398;28;20023;-22
2022/04/03 09:20:20;;;;;;;2.92;2.53;;;;;;;4.01;52.32;101262.56;5086872;28;20520;-22
2022/04/03 09:22:52;;;;;;;4.72;2.45;;;;;;;4.13;52.72;101264.59;5084821;28;20032;-21
2022/04/03 09:25:24;;;;;;;3.35;2.60;;;;;;;4.28;51.74;101258.03;5076927;28;20028;-23
2022/04/03 09:27:50;;;;;;;3.40;2.50;;;;;;;4.42;51.81;101266.22;5085369;28;20078;-22
2022/04/03 09:30:18;;;;;;;5.22;2.58;;;;;;;4.59;46.80;101261.41;5069015;28;20123;-22
2022/04/03 09:32:51;;;;;;;2.70;2.47;;;;;;;4.76;49.62;101261.84;5084688;28;20451;-22
2022/04/03 09:35:19;;;;;;;2.30;2.13;;;;;;;4.90;50.23;101256.94;5085089;28;20039;-22
2022/04/03 09:38:04;;;;;;;4.65;2.33;;;;;;;5.06;51.62;101252.06;5086527;28;20122;-22
2022/04/03 09:40:31;;;;;;;3.22;2.03;;;;;;;5.19;51.34;101255.84;5083801;28;20028;-22
2022/04/03 09:43:21;;;;;;;3.28;2.60;;;;;;;5.32;50.65;101252.66;5076892;28;20042;-22
2022/04/03 09:45:50;;;;;;;3.10;2.67;;;;;;;5.48;50.55;101253.00;5093025;28;20504;-22
2022/04/03 09:48:26;;;;;;;3.25;2.45;;;;;;;5.60;49.43;101252.38;5088841;28;20335;-22
2022/04/03 09:51:10;;;;;;;2.70;2.50;;;;;;;5.67;49.58;101248.16;5087037;28;20027;-22
2022/04/03 09:53:40;;;;;;;2.28;2.08;;;;;;;5.84;49.50;101243.25;5084844;28;20028;-21
2022/04/03 09:56:07;;;;;;;3.60;2.38;;;;;;;5.95;49.44;101243.44;5089105;28;20443;-21
2022/04/03 09:58:58;;;;;;;9.68;2.58;;;;;;;6.06;48.20;101238.47;5088115;28;20036;-22
2022/04/03 10:01:41;;;;;;;2.87;2.63;;;;;;;6.20;47.54;101239.59;5090446;28;20192;-22
2022/04/03 10:04:08;;;;;;;3.75;2.83;;;;;;;6.33;47.65;101240.69;5088110;28;20119;-22
2022/04/03 10:06:34;;;;;;;3.30;2.72;;;;;;;6.44;47.58;101240.00;5087424;28;20032;-22
2022/04/03 10:09:00;;;;;;;3.90;2.40;;;;;;;6.54;47.46;101229.69;5087473;28;20027;-21
2022/04/03 10:11:27;;;;;;;2.53;2.33;;;;;;;6.63;46.52;101228.06;5087317;28;20032;-22
2022/04/03 10:13:52;;;;;;;5.72;2.75;;;;;;;6.74;47.04;101229.13;5097974;28;20062;-22
2022/04/03 10:16:19;;;;;;;3.00;2.70;;;;;;;6.83;46.86;101232.78;5076564;28;20107;-22
2022/04/03 10:18:46;;;;;;;3.13;2.60;;;;;;;6.91;46.13;101236.38;5093855;28;20031;-22
2022/04/03 10:21:36;;;;;;;2.88;2.53;;;;;;;7.03;47.76;101230.41;5085955;28;20424;-22
2022/04/03 10:24:15;;;;;;;2.72;2.47;;;;;;;7.12;46.14;101232.31;5071662;28;20550;-22
2022/04/03 10:26:41;;;;;;;2.38;2.17;;;;;;;7.23;46.17;101237.72;5069395;28;20035;-22
2022/04/03 10:29:11;;;;;;;2.50;2.20;;;;;;;7.36;47.41;101225.63;5072918;28;20023;-22
2022/04/03 10:31:55;;;;;;;3.40;2.53;;;;;;;7.46;46.77;101211.75;5076570;28;20098;-21
2022/04/03 10:34:22;;;;;;;2.50;2.30;;;;;;;7.57;46.13;101210.16;5090823;28;20029;-21
2022/04/03 10:36:49;;;;;;;4.68;2.70;;;;;;;7.74;46.60;101216.47;5094442;28;20051;-21
2022/04/03 10:39:23;;;;;;;2.55;2.35;;;;;;;7.85;45.92;101220.09;5088915;28;20028;-21
2022/04/03 10:41:48;;;;;;;3.08;2.78;;;;;;;7.95;45.43;101213.19;5088976;28;20115;-22
2022/04/03 10:44:25;;;;;;;3.72;2.42;;;;;;;8.03;44.73;101208.91;5087714;28;20118;-21
2022/04/03 10:47:05;;;;;;;3.35;2.38;;;;;;;8.16;44.62;101209.91;5085768;28;20024;-21
2022/04/03 10:49:46;;;;;;;3.72;3.22;;;;;;;8.27;43.69;101206.50;5089641;28;20104;-21
2022/04/03 10:52:36;;;;;;;5.10;2.58;;;;;;;8.38;43.48;101203.97;5092766;28;20023;-22
2022/04/03 10:55:21;;;;;;;2.67;2.47;;;;;;;8.46;43.29;101204.91;5090911;28;20032;-22
2022/04/03 10:58:06;;;;;;;2.85;2.65;;;;;;;8.53;44.08;101193.59;5089825;28;20053;-23
2022/04/03 11:00:33;;;;;;;2.83;2.42;;;;;;;8.66;44.38;101193.69;5094713;28;20440;-25
2022/04/03 11:03:01;;;;;;;2.67;2.45;;;;;;;8.73;43.42;101193.75;5096495;28;20081;-24
2022/04/03 11:05:26;;;;;;;2.72;2.50;;;;;;;8.80;42.81;101185.91;5071156;28;20586;-24
2022/04/03 11:08:02;;;;;;;3.10;2.80;;;;;;;8.87;41.93;101181.56;5089798;28;20470;-24
2022/04/03 11:10:52;;;;;;;4.80;3.35;;;;;;;8.96;42.31;101192.13;5088284;28;20027;-22
2022/04/03 11:13:18;;;;;;;3.25;2.67;;;;;;;9.04;41.94;101189.56;5090964;28;20031;-25
2022/04/03 11:15:53;;;;;;;2.70;2.50;;;;;;;9.15;42.08;101197.50;5066158;28;20513;-24
2022/04/03 11:18:27;;;;;;;4.22;2.80;;;;;;;9.23;42.38;101172.09;5085746;28;20028;-22
2022/04/03 11:21:14;;;;;;;2.70;2.50;;;;;;;9.32;42.42;101166.88;5087104;28;20031;-24
2022/04/03 11:23:43;;;;;;;4.15;3.30;;;;;;;9.37;41.67;101167.78;5087359;28;20028;-23
2022/04/03 11:26:09;;;;;;;6.93;3.17;;;;;;;9.45;41.31;101161.66;5070866;28;20420;-24
2022/04/03 11:28:34;;;;;;;3.20;2.90;;;;;;;9.49;40.59;101168.69;5073952;28;20024;-25